createdAt,value
2018-07-10T00:01:09.652Z,15.37
2018-07-10T00:05:58.286Z,14.73
2018-07-10T00:10:38.252Z,18.83
2018-07-10T00:13:07.058Z,15.57
2018-07-10T00:15:35.667Z,13.80
2018-07-10T00:18:04.198Z,13.73
2018-07-10T00:20:32.795Z,14.60
2018-07-10T00:23:01.124Z,16.70
2018-07-10T00:25:29.840Z,15.20
2018-07-10T00:27:58.438Z,14.83
2018-07-10T00:30:27.029Z,14.63
2018-07-10T00:32:55.228Z,13.80
2018-07-10T00:35:23.788Z,15.30
2018-07-10T00:38:59.692Z,16.03
2018-07-10T00:41:30.780Z,20.93
2018-07-10T00:43:59.595Z,17.80
2018-07-10T00:46:29.027Z,21.87
2018-07-10T00:48:57.739Z,14.93
2018-07-10T00:51:27.136Z,17.70
2018-07-10T00:53:55.331Z,15.80
2018-07-10T00:56:23.897Z,14.03
2018-07-10T00:58:54.030Z,17.07
2018-07-10T01:01:23.568Z,16.53
2018-07-10T01:03:51.843Z,16.07
2018-07-10T01:06:20.193Z,17.00
2018-07-10T01:08:48.549Z,15.20
2018-07-10T01:11:17.931Z,17.20
2018-07-10T01:13:47.004Z,15.97
2018-07-10T01:16:18.958Z,21.13
2018-07-10T01:18:47.596Z,18.03
2018-07-10T01:21:18.027Z,17.30
2018-07-10T01:23:49.729Z,16.20
2018-07-10T01:26:18.299Z,14.03
2018-07-10T01:28:46.470Z,16.77
2018-07-10T01:31:14.646Z,19.10
2018-07-10T01:33:42.841Z,20.00
2018-07-10T01:36:11.364Z,23.00
2018-07-10T01:38:39.949Z,18.13
2018-07-10T01:41:08.100Z,16.50
2018-07-10T01:43:36.281Z,18.73
2018-07-10T01:46:04.467Z,16.50
2018-07-10T01:48:32.992Z,15.50
2018-07-10T01:51:01.268Z,14.83
2018-07-10T01:53:29.807Z,15.37
2018-07-10T01:55:57.935Z,14.50
2018-07-10T01:58:26.435Z,14.13
2018-07-10T02:00:54.879Z,15.50
2018-07-10T02:03:23.023Z,16.67
2018-07-10T02:05:51.285Z,18.50
2018-07-10T02:08:19.793Z,12.43
2018-07-10T02:10:47.959Z,16.17
2018-07-10T02:13:16.097Z,10.43
2018-07-10T02:15:44.662Z,20.53
2018-07-10T02:18:13.140Z,18.10
2018-07-10T02:21:03.923Z,16.73
2018-07-10T02:23:37.124Z,14.50
2018-07-10T02:26:06.679Z,21.10
2018-07-10T02:28:35.412Z,15.87
2018-07-10T02:31:03.712Z,13.80
2018-07-10T02:33:32.402Z,16.83
2018-07-10T02:36:00.542Z,19.70
2018-07-10T02:38:29.124Z,13.27
2018-07-10T02:40:58.404Z,11.40
2018-07-10T02:43:27.147Z,19.50
2018-07-10T02:45:56.092Z,12.63
2018-07-10T02:48:27.831Z,13.13
2018-07-10T02:50:56.728Z,11.23
2018-07-10T02:53:26.041Z,13.93
2018-07-10T02:55:54.259Z,14.10
2018-07-10T02:58:25.388Z,14.07
2018-07-10T03:00:53.902Z,13.90
2018-07-10T03:03:22.494Z,15.10
2018-07-10T03:05:50.766Z,17.83
2018-07-10T03:08:20.269Z,10.83
2018-07-10T03:10:49.023Z,14.57
2018-07-10T03:13:17.258Z,16.10
2018-07-10T03:15:45.410Z,12.70
2018-07-10T03:18:14.866Z,16.03
2018-07-10T03:20:43.611Z,11.60
2018-07-10T03:23:12.182Z,11.93
2018-07-10T03:25:40.681Z,16.37
2018-07-10T03:28:09.246Z,16.10
2018-07-10T03:30:37.651Z,13.27
2018-07-10T03:33:06.194Z,15.27
2018-07-10T03:35:34.404Z,15.30
2018-07-10T03:38:02.983Z,13.30
2018-07-10T03:40:31.858Z,17.70
2018-07-10T03:42:59.958Z,12.23
2018-07-10T03:45:28.178Z,21.33
2018-07-10T03:47:58.514Z,13.90
2018-07-10T03:50:27.234Z,15.23
2018-07-10T03:52:55.459Z,15.20
2018-07-10T03:55:24.815Z,18.83
2018-07-10T03:57:57.464Z,19.73
2018-07-10T04:00:26.641Z,12.77
2018-07-10T04:02:55.306Z,18.57
2018-07-10T04:05:24.024Z,17.80
2018-07-10T04:07:54.248Z,12.97
2018-07-10T04:10:23.942Z,15.40
2018-07-10T04:12:52.471Z,15.60
2018-07-10T04:15:20.971Z,17.63
2018-07-10T04:17:57.838Z,16.10
2018-07-10T04:20:29.818Z,12.73
2018-07-10T04:22:58.309Z,14.70
2018-07-10T04:25:28.634Z,16.57
2018-07-10T04:28:11.068Z,18.20
2018-07-10T04:30:54.946Z,14.43
2018-07-10T04:33:23.185Z,15.93
2018-07-10T04:35:51.389Z,17.37
2018-07-10T04:38:20.127Z,14.83
2018-07-10T04:40:48.650Z,13.27
2018-07-10T04:43:20.299Z,17.60
2018-07-10T04:45:49.408Z,17.83
2018-07-10T04:48:22.605Z,15.40
2018-07-10T04:50:53.617Z,12.53
2018-07-10T04:53:29.186Z,17.37
2018-07-10T04:55:57.339Z,15.00
2018-07-10T04:58:26.215Z,21.63
2018-07-10T05:00:57.810Z,13.43
2018-07-10T05:03:27.101Z,16.67
2018-07-10T05:05:57.636Z,17.43
2018-07-10T05:08:25.849Z,16.00
2018-07-10T05:10:54.567Z,16.17
2018-07-10T05:13:24.554Z,16.90
2018-07-10T05:16:02.949Z,16.03
2018-07-10T05:18:32.357Z,16.50
2018-07-10T05:21:04.132Z,16.97
2018-07-10T05:23:32.618Z,14.57
2018-07-10T05:26:00.792Z,12.13
2018-07-10T05:28:28.949Z,15.73
2018-07-10T05:30:58.459Z,13.00
2018-07-10T05:33:26.967Z,14.57
2018-07-10T05:35:55.902Z,12.33
2018-07-10T05:38:31.283Z,12.60
2018-07-10T05:41:00.256Z,15.17
2018-07-10T05:43:28.401Z,19.70
2018-07-10T05:45:57.018Z,12.70
2018-07-10T05:48:25.521Z,10.67
2018-07-10T05:50:53.686Z,12.10
2018-07-10T05:53:22.406Z,11.80
2018-07-10T05:55:50.601Z,14.13
2018-07-10T05:58:19.096Z,13.60
2018-07-10T06:00:47.641Z,17.30
2018-07-10T06:03:15.789Z,15.27
2018-07-10T06:05:44.172Z,16.83
2018-07-10T06:08:13.946Z,9.40
2018-07-10T06:10:42.761Z,12.57
2018-07-10T06:13:13.792Z,13.87
2018-07-10T06:15:42.690Z,13.33
2018-07-10T06:18:11.174Z,11.67
2018-07-10T06:20:41.075Z,14.93
2018-07-10T06:23:09.392Z,13.37
2018-07-10T06:25:38.583Z,14.40
2018-07-10T06:28:09.099Z,18.13
2018-07-10T06:30:38.469Z,10.37
2018-07-10T06:33:21.057Z,18.23
2018-07-10T06:35:59.531Z,8.13
2018-07-10T06:38:27.803Z,11.13
2018-07-10T06:40:56.316Z,10.93
2018-07-10T06:43:59.582Z,9.10
2018-07-10T06:49:24.930Z,11.03
2018-07-10T06:52:30.261Z,17.93
2018-07-10T06:55:10.739Z,7.57
2018-07-10T06:57:57.659Z,7.63
2018-07-10T07:00:26.353Z,9.10
2018-07-10T07:02:54.489Z,6.33
2018-07-10T07:05:23.019Z,6.00
2018-07-10T07:07:51.633Z,5.50
2018-07-10T07:10:20.169Z,8.13
2018-07-10T07:12:52.676Z,8.17
2018-07-10T07:15:21.821Z,6.23
2018-07-10T07:17:56.898Z,11.03
2018-07-10T07:20:25.338Z,7.83
2018-07-10T07:22:53.832Z,9.50
2018-07-10T07:25:22.317Z,10.17
2018-07-10T07:27:50.523Z,7.37
2018-07-10T07:30:19.490Z,9.70
2018-07-10T07:32:48.077Z,6.07
2018-07-10T07:35:16.501Z,7.60
2018-07-10T07:37:45.021Z,14.73
2018-07-10T07:40:13.502Z,5.80
2018-07-10T07:42:44.166Z,10.30
2018-07-10T07:45:12.641Z,11.80
2018-07-10T07:47:41.186Z,18.93
2018-07-10T07:50:11.101Z,15.47
2018-07-10T07:52:39.692Z,10.57
2018-07-10T07:55:07.785Z,15.50
2018-07-10T07:57:36.319Z,9.43
2018-07-10T08:00:04.441Z,9.90
2018-07-10T08:02:33.017Z,10.23
2018-07-10T08:05:01.292Z,12.47
2018-07-10T08:07:29.847Z,8.90
2018-07-10T08:09:58.932Z,6.63
2018-07-10T08:12:30.281Z,6.80
2018-07-10T08:15:00.919Z,9.50
2018-07-10T08:17:30.117Z,10.47
2018-07-10T08:19:59.522Z,9.83
2018-07-10T08:22:32.878Z,8.40
2018-07-10T08:25:01.361Z,6.33
2018-07-10T08:27:30.188Z,8.13
2018-07-10T08:29:58.926Z,7.70
2018-07-10T08:32:28.102Z,8.63
2018-07-10T08:34:58.473Z,7.93
2018-07-10T08:37:31.769Z,10.07
2018-07-10T08:40:00.343Z,10.97
2018-07-10T08:42:29.261Z,8.83
2018-07-10T08:45:02.105Z,12.20
2018-07-10T08:47:30.478Z,14.93
2018-07-10T08:49:58.991Z,7.83
2018-07-10T08:52:27.135Z,9.20
2018-07-10T08:54:55.244Z,9.67
2018-07-10T08:57:23.765Z,10.27
2018-07-10T08:59:52.727Z,12.10
2018-07-10T09:02:23.074Z,17.40
2018-07-10T09:04:51.596Z,13.27
2018-07-10T09:07:20.097Z,13.57
2018-07-10T09:09:48.699Z,11.57
2018-07-10T09:12:16.829Z,12.80
2018-07-10T09:14:45.010Z,11.00
2018-07-10T09:17:13.525Z,10.53
2018-07-10T09:19:42.168Z,12.13
2018-07-10T09:22:11.690Z,10.90
2018-07-10T09:24:56.744Z,10.93
2018-07-10T09:27:24.950Z,9.57
2018-07-10T09:29:54.431Z,20.80
2018-07-10T09:32:28.349Z,20.00
2018-07-10T09:34:57.846Z,11.93
2018-07-10T09:37:32.997Z,12.07
2018-07-10T09:40:06.577Z,9.67
2018-07-10T09:42:37.287Z,8.53
2018-07-10T09:45:06.015Z,8.00
2018-07-10T09:47:34.519Z,10.00
2018-07-10T09:50:03.074Z,11.13
2018-07-10T09:52:31.994Z,13.07
2018-07-10T09:55:00.257Z,15.80
2018-07-10T09:57:28.740Z,17.53
2018-07-10T09:59:57.249Z,9.67
2018-07-10T10:02:30.678Z,13.50
2018-07-10T10:05:00.630Z,20.10
2018-07-10T10:07:29.140Z,10.20
2018-07-10T10:09:57.637Z,12.43
2018-07-10T10:12:26.151Z,9.73
2018-07-10T10:14:54.968Z,11.17
2018-07-10T10:17:23.676Z,10.70
2018-07-10T10:19:53.089Z,8.17
2018-07-10T10:22:21.592Z,10.40
2018-07-10T10:24:51.329Z,7.83
2018-07-10T10:27:20.854Z,8.67
2018-07-10T10:29:49.398Z,6.70
2018-07-10T10:32:17.534Z,9.40
2018-07-10T10:34:46.070Z,11.13
2018-07-10T10:37:14.314Z,11.90
2018-07-10T10:39:42.494Z,8.90
2018-07-10T10:42:11.015Z,7.80
2018-07-10T10:44:39.519Z,18.03
2018-07-10T10:47:07.950Z,10.17
2018-07-10T10:49:36.100Z,10.20
2018-07-10T10:52:05.200Z,8.90
2018-07-10T10:54:33.756Z,14.47
2018-07-10T10:57:01.868Z,13.90
2018-07-10T10:59:30.032Z,15.90
2018-07-10T11:01:58.585Z,11.43
2018-07-10T11:04:26.766Z,15.23
2018-07-10T11:06:54.889Z,15.50
2018-07-10T11:09:23.440Z,18.07
2018-07-10T11:11:51.582Z,13.93
2018-07-10T11:14:20.132Z,14.17
2018-07-10T11:16:51.445Z,13.20
2018-07-10T11:19:24.028Z,8.93
2018-07-10T11:22:03.060Z,14.90
2018-07-10T11:24:38.711Z,12.77
2018-07-10T11:27:07.217Z,17.30
2018-07-10T11:29:35.748Z,13.20
2018-07-10T11:32:04.235Z,8.37
2018-07-10T11:34:32.837Z,12.93
2018-07-10T11:37:01.434Z,9.77
2018-07-10T11:39:30.099Z,14.67
2018-07-10T11:41:58.961Z,26.33
2018-07-10T11:44:27.472Z,9.20
2018-07-10T11:46:55.932Z,11.67
2018-07-10T11:49:24.416Z,8.60
2018-07-10T11:51:53.034Z,11.63
2018-07-10T11:54:21.197Z,10.40
2018-07-10T11:56:49.422Z,7.57
2018-07-10T11:59:18.020Z,9.97
2018-07-10T12:01:46.569Z,12.17
2018-07-10T12:04:15.043Z,9.70
2018-07-10T12:06:51.252Z,9.60
2018-07-10T12:09:20.125Z,8.30
2018-07-10T12:11:48.315Z,7.53
2018-07-10T12:14:16.845Z,11.20
2018-07-10T12:16:46.640Z,6.50
2018-07-10T12:19:19.695Z,8.10
2018-07-10T12:21:48.379Z,6.97
2018-07-10T12:24:16.553Z,5.50
2018-07-10T12:26:45.288Z,5.57
2018-07-10T12:29:13.485Z,8.07
2018-07-10T12:31:43.169Z,8.93
2018-07-10T12:34:11.311Z,8.80
2018-07-10T12:36:39.458Z,8.33
2018-07-10T12:39:07.983Z,7.40
2018-07-10T12:41:36.552Z,6.73
2018-07-10T12:44:04.677Z,8.40
2018-07-10T12:46:33.196Z,18.77
2018-07-10T12:49:01.753Z,17.63
2018-07-10T12:51:30.285Z,9.30
2018-07-10T12:53:58.851Z,9.90
2018-07-10T12:56:27.040Z,7.57
2018-07-10T12:58:55.572Z,7.80
2018-07-10T13:01:23.736Z,10.10
2018-07-10T13:03:53.144Z,7.97
2018-07-10T13:06:21.682Z,9.33
2018-07-10T13:08:49.907Z,8.80
2018-07-10T13:11:18.444Z,15.90
2018-07-10T13:13:46.607Z,18.30
2018-07-10T13:16:15.118Z,12.30
2018-07-10T13:18:44.038Z,5.93
2018-07-10T13:21:12.924Z,6.30
2018-07-10T13:23:41.598Z,8.57
2018-07-10T13:26:10.070Z,7.10
2018-07-10T13:28:38.610Z,10.53
2018-07-10T13:31:06.821Z,9.67
2018-07-10T13:33:35.394Z,7.80
2018-07-10T13:36:03.532Z,7.00
2018-07-10T13:38:32.067Z,7.63
2018-07-10T13:41:03.269Z,9.23
2018-07-10T13:43:35.436Z,10.03
2018-07-10T13:46:03.690Z,7.10
2018-07-10T13:48:31.842Z,7.77
2018-07-10T13:51:00.023Z,9.33
2018-07-10T13:53:28.527Z,6.90
2018-07-10T13:55:57.037Z,7.13
2018-07-10T13:58:28.801Z,6.43
2018-07-10T14:01:05.771Z,7.03
2018-07-10T14:03:34.271Z,9.07
2018-07-10T14:06:02.816Z,7.67
2018-07-10T14:08:31.378Z,5.97
2018-07-10T14:10:59.587Z,5.90
2018-07-10T14:13:28.110Z,7.03
2018-07-10T14:15:56.398Z,10.10
2018-07-10T14:18:25.172Z,7.00
2018-07-10T14:20:53.552Z,6.53
2018-07-10T14:23:22.501Z,6.10
2018-07-10T14:25:51.658Z,10.03
2018-07-10T14:28:20.235Z,7.03
2018-07-10T14:30:50.211Z,7.50
2018-07-10T14:33:24.387Z,6.23
2018-07-10T14:35:53.345Z,11.53
2018-07-10T14:38:27.373Z,6.70
2018-07-10T14:40:56.759Z,10.53
2018-07-10T14:43:30.205Z,8.70
2018-07-10T14:46:06.131Z,7.93
2018-07-10T14:48:38.507Z,5.83
2018-07-10T14:51:09.828Z,8.00
2018-07-10T14:53:38.358Z,5.03
2018-07-10T14:56:06.463Z,20.47
2018-07-10T14:58:38.551Z,4.30
2018-07-10T15:01:06.762Z,9.07
2018-07-10T15:03:39.436Z,18.40
2018-07-10T15:06:07.705Z,8.87
2018-07-10T15:08:36.447Z,3.47
2018-07-10T15:11:06.752Z,6.93
2018-07-10T15:13:40.484Z,6.40
2018-07-10T15:16:08.672Z,4.00
2018-07-10T15:18:43.761Z,5.40
2018-07-10T15:21:12.378Z,5.00
2018-07-10T15:23:40.676Z,3.50
2018-07-10T15:26:10.489Z,5.83
2018-07-10T15:28:39.027Z,5.10
2018-07-10T15:31:07.261Z,3.90
2018-07-10T15:33:36.377Z,5.63
2018-07-10T15:36:04.848Z,4.83
2018-07-10T15:38:35.727Z,4.77
2018-07-10T15:41:04.700Z,4.50
2018-07-10T15:43:33.247Z,5.67
2018-07-10T15:46:02.650Z,6.00
2018-07-10T15:48:31.249Z,5.27
2018-07-10T15:50:59.764Z,7.03
2018-07-10T15:53:27.959Z,5.10
2018-07-10T15:55:56.136Z,5.50
2018-07-10T15:58:24.630Z,11.10
2018-07-10T16:00:52.773Z,5.87
2018-07-10T16:03:20.932Z,4.50
2018-07-10T16:05:49.563Z,8.87
2018-07-10T16:08:20.635Z,4.87
2018-07-10T16:10:53.512Z,5.23
2018-07-10T16:13:22.489Z,6.80
2018-07-10T16:15:55.752Z,7.10
2018-07-10T16:18:26.760Z,8.83
2018-07-10T16:20:56.095Z,5.20
2018-07-10T16:23:26.177Z,7.00
2018-07-10T16:25:59.872Z,7.70
2018-07-10T16:28:28.460Z,13.67
2018-07-10T16:30:57.156Z,14.53
2018-07-10T16:33:30.430Z,19.97
2018-07-10T16:35:59.242Z,14.10
2018-07-10T16:38:27.757Z,12.07
2018-07-10T16:41:01.280Z,13.87
2018-07-10T16:43:30.332Z,15.70
2018-07-10T16:45:58.762Z,15.30
2018-07-10T16:48:30.431Z,18.13
2018-07-10T16:51:00.669Z,12.80
2018-07-10T16:53:35.798Z,17.40
2018-07-10T16:56:03.994Z,20.40
2018-07-10T16:58:32.867Z,17.33
2018-07-10T17:01:01.951Z,12.73
2018-07-10T17:03:30.615Z,14.10
2018-07-10T17:05:58.966Z,13.90
2018-07-10T17:08:27.193Z,10.90
2018-07-10T17:10:55.779Z,11.80
2018-07-10T17:13:24.021Z,12.20
2018-07-10T17:15:52.622Z,19.70
2018-07-10T17:18:21.086Z,15.23
2018-07-10T17:20:49.335Z,11.70
2018-07-10T17:23:18.285Z,12.30
2018-07-10T17:25:47.516Z,10.20
2018-07-10T17:28:16.337Z,10.80
2018-07-10T17:30:44.920Z,10.67
2018-07-10T17:33:13.604Z,15.70
2018-07-10T17:35:42.016Z,13.50
2018-07-10T17:38:10.253Z,12.13
2018-07-10T17:40:38.890Z,14.63
2018-07-10T17:43:08.624Z,12.80
2018-07-10T17:45:37.521Z,10.90
2018-07-10T17:48:06.163Z,12.10
2018-07-10T17:50:34.760Z,12.03
2018-07-10T17:53:03.706Z,10.47
2018-07-10T17:55:32.278Z,12.80
2018-07-10T17:58:03.617Z,11.60
2018-07-10T18:00:32.762Z,12.50
2018-07-10T18:03:01.022Z,12.97
2018-07-10T18:05:29.787Z,21.13
2018-07-10T18:07:58.090Z,14.93
2018-07-10T18:10:26.513Z,26.20
2018-07-10T18:12:56.627Z,13.20
2018-07-10T18:15:25.098Z,14.90
2018-07-10T18:17:54.097Z,18.00
2018-07-10T18:20:23.767Z,14.03
2018-07-10T18:22:52.699Z,18.23
2018-07-10T18:25:20.903Z,11.87
2018-07-10T18:27:49.128Z,21.60
2018-07-10T18:30:17.370Z,24.63
2018-07-10T18:32:46.207Z,21.27
2018-07-10T18:35:15.081Z,17.43
2018-07-10T18:37:43.467Z,20.97
2018-07-10T18:40:11.911Z,22.10
2018-07-10T18:42:40.257Z,16.60
2018-07-10T18:45:09.219Z,46.70
2018-07-10T18:47:39.042Z,18.33
2018-07-10T18:50:07.818Z,17.40
2018-07-10T18:52:36.064Z,19.63
2018-07-10T18:55:04.286Z,18.53
2018-07-10T18:57:43.980Z,17.20
2018-07-10T19:00:12.574Z,18.13
2018-07-10T19:02:47.710Z,17.83
2018-07-10T19:05:17.597Z,19.27
2018-07-10T19:07:45.906Z,23.97
2018-07-10T19:10:14.171Z,22.27
2018-07-10T19:12:43.642Z,21.67
2018-07-10T19:15:12.380Z,19.10
2018-07-10T19:17:43.603Z,21.80
2018-07-10T19:20:12.180Z,21.03
2018-07-10T19:22:46.153Z,21.50
2018-07-10T19:25:15.583Z,38.83
2018-07-10T19:27:44.424Z,21.47
2018-07-10T19:30:13.009Z,23.90
2018-07-10T19:32:41.272Z,22.30
2018-07-10T19:35:11.674Z,28.63
2018-07-10T19:37:41.136Z,28.63
2018-07-10T19:40:09.631Z,21.10
2018-07-10T19:42:39.174Z,33.70
2018-07-10T19:45:09.619Z,31.63
2018-07-10T19:47:37.914Z,25.40
2018-07-10T19:50:10.636Z,29.37
2018-07-10T19:52:39.657Z,24.73
2018-07-10T19:55:07.881Z,27.90
2018-07-10T19:57:46.252Z,26.93
2018-07-10T20:00:14.544Z,27.97
2018-07-10T20:02:42.759Z,34.23
2018-07-10T20:05:11.646Z,32.70
2018-07-10T20:07:51.237Z,36.03
2018-07-10T20:10:30.845Z,37.30
2018-07-10T20:15:12.047Z,26.97
2018-07-10T20:17:53.508Z,35.63
2018-07-10T20:20:28.665Z,31.20
2018-07-10T20:23:00.235Z,24.93
2018-07-10T20:25:33.891Z,29.40
2018-07-10T20:30:19.331Z,34.83
2018-07-10T20:32:50.856Z,36.60
2018-07-10T20:35:23.225Z,34.63
2018-07-10T20:37:51.817Z,38.10
2018-07-10T20:40:29.247Z,30.67
2018-07-10T20:42:59.107Z,45.53
2018-07-10T20:45:27.442Z,33.30
2018-07-10T20:47:59.635Z,36.37
2018-07-10T20:50:32.856Z,31.43
2018-07-10T20:53:37.222Z,32.47
2018-07-10T20:56:11.135Z,33.40
2018-07-10T20:58:43.926Z,31.93
2018-07-10T21:01:12.736Z,34.27
2018-07-10T21:03:51.277Z,27.80
2018-07-10T21:06:24.044Z,26.33
2018-07-10T21:09:08.981Z,26.57
2018-07-10T21:11:49.998Z,38.60
2018-07-10T21:14:26.729Z,34.33
2018-07-10T21:17:18.620Z,46.57
2018-07-10T21:20:29.369Z,29.43
2018-07-10T21:23:05.098Z,47.27
2018-07-10T21:25:39.178Z,34.30
2018-07-10T21:28:17.260Z,29.43
2018-07-10T21:30:47.906Z,28.63
2018-07-10T21:33:26.116Z,37.87
2018-07-10T21:35:58.738Z,33.30
2018-07-10T21:38:28.355Z,32.20
2018-07-10T21:41:04.657Z,29.33
2018-07-10T21:45:47.626Z,34.00
2018-07-10T21:48:27.249Z,27.33
2018-07-10T21:50:55.424Z,30.97
2018-07-10T21:53:24.339Z,31.10
2018-07-10T21:55:52.461Z,25.50
2018-07-10T21:58:22.056Z,29.87
2018-07-10T22:02:00.686Z,29.40
2018-07-10T22:04:32.370Z,26.20
2018-07-10T22:07:01.547Z,27.83
2018-07-10T22:09:32.820Z,28.87
2018-07-10T22:12:03.787Z,30.53
2018-07-10T22:14:32.279Z,38.93
2018-07-10T22:17:02.516Z,27.87
2018-07-10T22:19:33.118Z,26.87
2018-07-10T22:22:01.617Z,30.87
2018-07-10T22:24:29.787Z,29.60
2018-07-10T22:26:59.255Z,31.50
2018-07-10T22:29:32.779Z,21.20
2018-07-10T22:32:02.194Z,26.40
2018-07-10T22:34:31.791Z,25.20
2018-07-10T22:37:00.339Z,27.30
2018-07-10T22:39:29.069Z,25.47
2018-07-10T22:41:59.985Z,29.03
2018-07-10T22:44:29.002Z,33.53
2018-07-10T22:46:58.840Z,24.53
2018-07-10T22:49:27.459Z,26.13
2018-07-10T22:51:59.108Z,26.37
2018-07-10T22:54:27.902Z,23.80
2018-07-10T22:56:56.152Z,22.07
2018-07-10T22:59:24.284Z,24.20
2018-07-10T23:01:52.525Z,23.10
2018-07-10T23:04:21.460Z,28.70
2018-07-10T23:06:49.618Z,23.70
2018-07-10T23:09:18.090Z,26.30
2018-07-10T23:11:47.267Z,24.87
2018-07-10T23:14:15.529Z,27.67
2018-07-10T23:16:43.666Z,24.30
2018-07-10T23:19:12.174Z,23.33
2018-07-10T23:21:40.329Z,25.50
2018-07-10T23:24:09.254Z,29.80
2018-07-10T23:26:38.720Z,33.90
2018-07-10T23:29:06.895Z,25.70
2018-07-10T23:31:35.043Z,29.90
2018-07-10T23:34:08.534Z,34.00
2018-07-10T23:36:37.815Z,31.80
2018-07-10T23:39:06.936Z,35.13
2018-07-10T23:41:36.262Z,36.80
2018-07-10T23:44:05.761Z,37.13
2018-07-10T23:46:36.560Z,37.43
2018-07-10T23:49:12.707Z,36.17
2018-07-10T23:51:52.605Z,36.90
2018-07-10T23:54:21.074Z,38.53
2018-07-10T23:56:49.177Z,37.07
2018-07-10T23:59:17.658Z,35.27
